Time;durP1;ratioP1;P1;durP2;ratioP2;P2;SDS_P1;SDS_P2;PMS_P1;PMS_P2;Temp;Humidity;BMP_temperature;BMP_pressure;BME280_temperature;BME280_humidity;BME280_pressure;Samples;Min_cycle;Max_cycle;Signal;HPM_P1;HPM_P2
2022/12/06 00:01:30;;;;;;;15.20;4.30;;;;;;;;;;5019275;28;20044;-62
2022/12/06 00:03:56;;;;;;;10.77;4.10;;;;;;;;;;5016818;28;20263;-65
2022/12/06 00:06:23;;;;;;;12.05;4.50;;;;;;;;;;5018087;28;20285;-66
2022/12/06 00:08:49;;;;;;;14.20;4.32;;;;;;;;;;4998522;28;20040;-64
2022/12/06 00:11:16;;;;;;;12.15;4.22;;;;;;;;;;5015680;28;20131;-66
2022/12/06 00:13:43;;;;;;;12.45;4.10;;;;;;;;;;5017599;28;20362;-66
2022/12/06 00:16:14;;;;;;;13.98;4.63;;;;;;;;;;4994229;28;20150;-66
2022/12/06 00:18:40;;;;;;;11.40;4.55;;;;;;;;;;5017120;28;20496;-65
2022/12/06 00:21:07;;;;;;;14.10;5.20;;;;;;;;;;5016454;28;20443;-66
2022/12/06 00:23:39;;;;;;;13.35;4.30;;;;;;;;;;5018690;28;20033;-66
2022/12/06 00:26:05;;;;;;;14.55;4.28;;;;;;;;;;5015725;28;20059;-66
2022/12/06 00:28:31;;;;;;;11.65;3.88;;;;;;;;;;5015014;28;20075;-66
2022/12/06 00:31:00;;;;;;;10.30;3.75;;;;;;;;;;5000515;28;20090;-65
2022/12/06 00:33:26;;;;;;;11.10;3.58;;;;;;;;;;4999670;28;20052;-64
2022/12/06 00:36:02;;;;;;;12.25;3.92;;;;;;;;;;4998325;28;20033;-66
2022/12/06 00:38:30;;;;;;;9.65;3.40;;;;;;;;;;5018661;28;20537;-66
2022/12/06 00:40:59;;;;;;;10.05;3.13;;;;;;;;;;5002037;28;20440;-65
2022/12/06 00:43:25;;;;;;;6.13;3.00;;;;;;;;;;5016203;28;20123;-65
2022/12/06 00:45:51;;;;;;;10.93;2.95;;;;;;;;;;4999166;28;20582;-66
2022/12/06 00:48:16;;;;;;;12.45;3.15;;;;;;;;;;5018983;28;20088;-65
2022/12/06 00:50:42;;;;;;;12.77;3.40;;;;;;;;;;5017676;28;20036;-65
2022/12/06 00:53:07;;;;;;;7.28;2.70;;;;;;;;;;5016784;28;20732;-65
2022/12/06 00:55:32;;;;;;;10.60;3.15;;;;;;;;;;5017152;28;20043;-65
2022/12/06 00:57:58;;;;;;;9.00;3.17;;;;;;;;;;5016467;28;20037;-64
2022/12/06 01:00:26;;;;;;;10.35;2.53;;;;;;;;;;4996585;28;20159;-66
2022/12/06 01:02:56;;;;;;;6.68;2.60;;;;;;;;;;5017872;28;20036;-65
2022/12/06 01:05:21;;;;;;;10.25;2.40;;;;;;;;;;5014358;28;20056;-64
2022/12/06 01:07:47;;;;;;;6.07;2.13;;;;;;;;;;5014415;28;22357;-65
2022/12/06 01:10:12;;;;;;;6.28;2.25;;;;;;;;;;5018762;28;20107;-65
2022/12/06 01:12:38;;;;;;;5.97;2.28;;;;;;;;;;5016772;28;20032;-66
2022/12/06 01:15:04;;;;;;;11.38;2.50;;;;;;;;;;5017715;28;20667;-63
2022/12/06 01:17:29;;;;;;;6.75;2.08;;;;;;;;;;5013595;28;20033;-66
2022/12/06 01:19:55;;;;;;;5.50;2.13;;;;;;;;;;5006634;28;20417;-65
2022/12/06 01:22:20;;;;;;;11.65;2.40;;;;;;;;;;5018473;28;20139;-66
2022/12/06 01:24:46;;;;;;;4.47;2.05;;;;;;;;;;5014422;28;20033;-66
2022/12/06 01:27:11;;;;;;;5.15;1.90;;;;;;;;;;4998335;28;20037;-65
2022/12/06 01:33:06;;;;;;;6.60;2.75;;;;;;;;;;4990325;22;20049;-65
2022/12/06 01:35:31;;;;;;;7.07;2.33;;;;;;;;;;4996436;28;21008;-65
2022/12/06 01:37:56;;;;;;;6.60;2.60;;;;;;;;;;4979859;28;20945;-65
2022/12/06 01:40:21;;;;;;;10.63;2.38;;;;;;;;;;5000290;28;20071;-64
2022/12/06 01:42:47;;;;;;;5.55;2.55;;;;;;;;;;4999717;28;20041;-64
2022/12/06 01:45:12;;;;;;;7.20;2.50;;;;;;;;;;4983212;28;20108;-61
2022/12/06 01:47:39;;;;;;;6.35;2.20;;;;;;;;;;4979977;28;20080;-64
2022/12/06 01:50:08;;;;;;;7.15;2.10;;;;;;;;;;4979311;28;20056;-64
2022/12/06 01:52:42;;;;;;;6.63;2.08;;;;;;;;;;4989963;28;20037;-64
2022/12/06 01:55:09;;;;;;;5.22;2.25;;;;;;;;;;5001618;28;20041;-63
2022/12/06 01:57:35;;;;;;;7.22;2.80;;;;;;;;;;5001108;28;20033;-64
2022/12/06 02:00:00;;;;;;;5.65;2.55;;;;;;;;;;4997946;28;20259;-64
2022/12/06 02:02:25;;;;;;;7.88;2.58;;;;;;;;;;5000546;28;20073;-64
2022/12/06 02:04:51;;;;;;;7.78;2.75;;;;;;;;;;4997465;28;20033;-64
2022/12/06 02:07:21;;;;;;;6.65;2.10;;;;;;;;;;5000225;28;20037;-64
2022/12/06 02:09:47;;;;;;;15.13;2.67;;;;;;;;;;4998544;28;20053;-64
2022/12/06 02:12:14;;;;;;;7.95;2.30;;;;;;;;;;4999919;28;20076;-63
2022/12/06 02:14:49;;;;;;;4.82;2.33;;;;;;;;;;4995400;28;20159;-63
2022/12/06 02:17:33;;;;;;;5.68;2.65;;;;;;;;;;5000725;28;20056;-65
2022/12/06 02:19:58;;;;;;;9.43;2.55;;;;;;;;;;5000179;28;20037;-65
2022/12/06 02:22:29;;;;;;;7.20;2.50;;;;;;;;;;4999549;28;20067;-65
2022/12/06 02:25:15;;;;;;;4.07;2.75;;;;;;;;;;4991916;28;20040;-65
2022/12/06 02:27:57;;;;;;;7.03;2.15;;;;;;;;;;4999879;28;20122;-65
2022/12/06 02:30:41;;;;;;;4.13;2.30;;;;;;;;;;4980900;28;22391;-65
2022/12/06 02:33:34;;;;;;;8.93;2.78;;;;;;;;;;4978937;28;20037;-64
2022/12/06 02:36:07;;;;;;;9.30;2.17;;;;;;;;;;4985848;28;20527;-63
2022/12/06 02:38:36;;;;;;;6.75;2.40;;;;;;;;;;5004301;28;20029;-63
2022/12/06 02:41:07;;;;;;;6.25;2.53;;;;;;;;;;5004582;28;20132;-62
2022/12/06 02:43:53;;;;;;;5.07;2.55;;;;;;;;;;4989468;28;21185;-64
2022/12/06 02:46:21;;;;;;;5.80;2.40;;;;;;;;;;5000723;28;20143;-65
2022/12/06 02:48:51;;;;;;;8.35;2.45;;;;;;;;;;5003496;28;20634;-63
2022/12/06 02:51:16;;;;;;;9.77;2.88;;;;;;;;;;5003711;28;20932;-63
2022/12/06 02:53:44;;;;;;;6.43;2.60;;;;;;;;;;5002920;28;20045;-63
2022/12/06 02:56:11;;;;;;;4.97;2.55;;;;;;;;;;5001740;28;20059;-65
2022/12/06 02:58:40;;;;;;;8.85;2.60;;;;;;;;;;5002178;28;20142;-65
2022/12/06 03:01:08;;;;;;;6.57;2.33;;;;;;;;;;4983046;28;20039;-65
2022/12/06 03:03:49;;;;;;;5.50;2.40;;;;;;;;;;5001532;28;20033;-65
2022/12/06 03:06:15;;;;;;;7.88;2.70;;;;;;;;;;4985652;28;20033;-65
2022/12/06 03:08:53;;;;;;;7.03;2.83;;;;;;;;;;5004809;28;20654;-65
2022/12/06 03:11:18;;;;;;;5.68;2.55;;;;;;;;;;5001810;28;20037;-65
2022/12/06 03:13:54;;;;;;;4.88;2.30;;;;;;;;;;4989224;28;20192;-64
2022/12/06 03:16:27;;;;;;;5.47;2.70;;;;;;;;;;5001794;28;20223;-65
2022/12/06 03:19:10;;;;;;;7.03;3.00;;;;;;;;;;5001411;28;20656;-65
2022/12/06 03:21:38;;;;;;;6.80;2.40;;;;;;;;;;5001455;28;20111;-65
2022/12/06 03:24:10;;;;;;;8.35;2.80;;;;;;;;;;5001979;28;20029;-63
2022/12/06 03:26:39;;;;;;;5.75;2.60;;;;;;;;;;5002581;28;20041;-63
2022/12/06 03:29:07;;;;;;;6.95;2.80;;;;;;;;;;4985446;28;20049;-63
2022/12/06 03:31:36;;;;;;;5.15;2.90;;;;;;;;;;4985495;28;20038;-63
2022/12/06 03:34:05;;;;;;;6.53;2.65;;;;;;;;;;5002286;28;20194;-63
2022/12/06 03:36:33;;;;;;;5.82;3.13;;;;;;;;;;5002872;28;20143;-63
2022/12/06 03:39:00;;;;;;;6.47;2.90;;;;;;;;;;4999720;28;20128;-63
2022/12/06 03:41:28;;;;;;;13.07;3.63;;;;;;;;;;5001685;28;20040;-62
2022/12/06 03:43:54;;;;;;;5.35;3.08;;;;;;;;;;5000128;28;20786;-63
2022/12/06 03:46:22;;;;;;;9.65;3.35;;;;;;;;;;5001336;28;20067;-64
2022/12/06 03:48:53;;;;;;;11.80;4.13;;;;;;;;;;4968079;28;20143;-63
2022/12/06 03:51:21;;;;;;;7.05;3.00;;;;;;;;;;5001559;28;20041;-63
2022/12/06 03:53:51;;;;;;;8.82;3.55;;;;;;;;;;5000558;28;20051;-64
2022/12/06 03:56:16;;;;;;;8.55;3.33;;;;;;;;;;4978387;28;21678;-63
2022/12/06 03:58:42;;;;;;;7.82;3.10;;;;;;;;;;4981909;28;20053;-62
2022/12/06 04:01:08;;;;;;;9.73;3.38;;;;;;;;;;5000078;28;20042;-63
2022/12/06 04:03:33;;;;;;;6.68;3.03;;;;;;;;;;4966495;28;20037;-63
2022/12/06 04:06:03;;;;;;;9.93;3.13;;;;;;;;;;4997532;28;20095;-63
2022/12/06 04:08:28;;;;;;;6.65;2.88;;;;;;;;;;4965798;28;20093;-63
2022/12/06 04:10:54;;;;;;;6.97;2.80;;;;;;;;;;4997924;28;20155;-63
2022/12/06 04:13:19;;;;;;;8.35;2.80;;;;;;;;;;5000649;28;20033;-64
2022/12/06 04:15:48;;;;;;;14.32;2.65;;;;;;;;;;4981354;28;20554;-63
2022/12/06 04:18:17;;;;;;;7.70;2.50;;;;;;;;;;4999996;28;20037;-63
2022/12/06 04:23:26;;;;;;;8.27;2.47;;;;;;;;;;4999664;28;20568;-63
2022/12/06 04:25:52;;;;;;;4.93;2.50;;;;;;;;;;4978535;28;20052;-63
2022/12/06 04:39:12;;;;;;;6.07;2.35;;;;;;;;;;4987714;28;20037;-63
2022/12/06 04:44:22;;;;;;;8.98;2.25;;;;;;;;;;4998057;28;20029;-63
2022/12/06 04:46:48;;;;;;;7.93;2.50;;;;;;;;;;5001085;28;20785;-63
2022/12/06 04:49:13;;;;;;;6.20;2.00;;;;;;;;;;4999309;28;20065;-63
2022/12/06 04:51:41;;;;;;;4.80;2.70;;;;;;;;;;5001029;28;20128;-63
2022/12/06 04:54:07;;;;;;;4.97;2.00;;;;;;;;;;5000513;28;20033;-63
2022/12/06 04:56:32;;;;;;;7.20;2.22;;;;;;;;;;5000679;28;20033;-63
2022/12/06 04:58:57;;;;;;;10.43;2.42;;;;;;;;;;4999404;28;20033;-63
2022/12/06 05:01:23;;;;;;;6.63;2.25;;;;;;;;;;4983366;28;20861;-63
2022/12/06 05:03:48;;;;;;;5.90;2.50;;;;;;;;;;4983615;28;20039;-64
2022/12/06 05:06:13;;;;;;;11.07;2.55;;;;;;;;;;4983089;28;20029;-62
2022/12/06 05:08:39;;;;;;;6.60;2.63;;;;;;;;;;4991183;28;20041;-64
2022/12/06 05:11:05;;;;;;;7.68;2.58;;;;;;;;;;4992130;28;20034;-63
2022/12/06 05:13:30;;;;;;;8.55;2.72;;;;;;;;;;4983864;28;20043;-64
2022/12/06 05:16:01;;;;;;;7.03;2.28;;;;;;;;;;5000414;28;20864;-62
2022/12/06 05:18:27;;;;;;;5.95;2.33;;;;;;;;;;4975319;28;20044;-64
2022/12/06 05:21:01;;;;;;;4.72;2.17;;;;;;;;;;4999512;28;20033;-64
2022/12/06 05:23:28;;;;;;;7.05;2.33;;;;;;;;;;4998775;28;20111;-64
2022/12/06 05:25:58;;;;;;;8.30;2.42;;;;;;;;;;5000583;28;20072;-66
2022/12/06 05:28:23;;;;;;;7.78;2.85;;;;;;;;;;5000792;28;20041;-66
2022/12/06 05:30:48;;;;;;;5.07;2.45;;;;;;;;;;4999659;28;20580;-66
2022/12/06 05:33:16;;;;;;;6.95;2.60;;;;;;;;;;5001186;28;22364;-66
2022/12/06 05:35:41;;;;;;;8.73;2.28;;;;;;;;;;4998400;28;20045;-65
2022/12/06 05:38:07;;;;;;;6.07;2.10;;;;;;;;;;5000687;28;20155;-65
2022/12/06 05:40:32;;;;;;;6.35;2.70;;;;;;;;;;5001426;28;20041;-63
2022/12/06 05:42:57;;;;;;;6.60;2.30;;;;;;;;;;5002432;28;20048;-65
2022/12/06 05:45:23;;;;;;;4.88;2.45;;;;;;;;;;4998532;28;20962;-65
2022/12/06 05:47:48;;;;;;;5.78;2.50;;;;;;;;;;4988017;28;20142;-62
2022/12/06 05:50:14;;;;;;;8.48;2.80;;;;;;;;;;4998277;28;20510;-64
2022/12/06 05:52:40;;;;;;;7.47;2.47;;;;;;;;;;4999429;28;20781;-64
2022/12/06 05:55:05;;;;;;;5.47;3.00;;;;;;;;;;4996773;28;20991;-62
2022/12/06 05:57:33;;;;;;;9.27;3.13;;;;;;;;;;4982412;28;20037;-62
2022/12/06 05:59:58;;;;;;;5.13;2.70;;;;;;;;;;4999170;28;20034;-63
2022/12/06 06:02:24;;;;;;;6.97;2.95;;;;;;;;;;4992979;28;20956;-64
2022/12/06 06:04:49;;;;;;;9.05;2.85;;;;;;;;;;4998217;28;22044;-64
2022/12/06 06:07:14;;;;;;;9.70;3.20;;;;;;;;;;4986484;28;20037;-64
2022/12/06 06:09:39;;;;;;;6.15;3.78;;;;;;;;;;5004076;28;20169;-64
2022/12/06 06:12:12;;;;;;;12.75;4.10;;;;;;;;;;5004029;28;21026;-64
2022/12/06 06:14:38;;;;;;;14.23;5.82;;;;;;;;;;5006181;28;20033;-63
2022/12/06 06:17:03;;;;;;;17.15;7.15;;;;;;;;;;4986973;28;20898;-63
2022/12/06 06:19:29;;;;;;;19.08;9.13;;;;;;;;;;5005028;28;20187;-63
2022/12/06 06:21:54;;;;;;;13.90;6.65;;;;;;;;;;4984151;28;20132;-63
2022/12/06 06:24:20;;;;;;;9.73;5.47;;;;;;;;;;5001420;28;20041;-63
2022/12/06 06:26:45;;;;;;;8.63;5.13;;;;;;;;;;5003945;28;20957;-63
2022/12/06 06:29:12;;;;;;;8.70;4.50;;;;;;;;;;5005078;28;20055;-63
2022/12/06 06:31:38;;;;;;;15.00;4.47;;;;;;;;;;5002989;28;20037;-63
2022/12/06 06:34:03;;;;;;;6.85;3.60;;;;;;;;;;5004897;28;20511;-63
2022/12/06 06:36:28;;;;;;;7.22;3.45;;;;;;;;;;4999859;28;20038;-62
2022/12/06 06:38:57;;;;;;;8.20;3.25;;;;;;;;;;5003567;28;20041;-63
2022/12/06 06:41:23;;;;;;;7.38;3.03;;;;;;;;;;5002741;28;20599;-62
2022/12/06 06:43:48;;;;;;;7.40;3.45;;;;;;;;;;5003126;28;20037;-62
2022/12/06 06:46:13;;;;;;;7.82;3.95;;;;;;;;;;5004428;28;20068;-62
2022/12/06 06:48:41;;;;;;;6.38;2.97;;;;;;;;;;4975710;28;20048;-62
2022/12/06 06:51:10;;;;;;;6.88;2.83;;;;;;;;;;4986005;28;20037;-61
2022/12/06 06:53:38;;;;;;;5.80;3.15;;;;;;;;;;5004857;28;23147;-62
2022/12/06 06:56:04;;;;;;;5.50;2.97;;;;;;;;;;4992661;28;20659;-61
2022/12/06 06:58:30;;;;;;;10.25;3.13;;;;;;;;;;4999340;28;20037;-62
2022/12/06 07:00:56;;;;;;;6.82;2.90;;;;;;;;;;5002298;28;20409;-63
2022/12/06 07:03:22;;;;;;;7.55;2.90;;;;;;;;;;5001921;28;20036;-63
2022/12/06 07:05:52;;;;;;;8.52;3.20;;;;;;;;;;5003748;28;20037;-63
2022/12/06 07:08:18;;;;;;;7.63;3.08;;;;;;;;;;4981604;28;20558;-63
2022/12/06 07:10:47;;;;;;;6.88;3.05;;;;;;;;;;4984424;28;20040;-63
2022/12/06 07:13:20;;;;;;;7.00;3.10;;;;;;;;;;5002528;28;20394;-63
2022/12/06 07:15:46;;;;;;;4.22;2.80;;;;;;;;;;5002499;28;20611;-63
2022/12/06 07:18:11;;;;;;;6.65;2.83;;;;;;;;;;5000446;28;20612;-63
2022/12/06 07:20:36;;;;;;;8.93;2.88;;;;;;;;;;4976063;28;20524;-63
2022/12/06 07:23:02;;;;;;;9.43;2.67;;;;;;;;;;4976741;28;20211;-62
2022/12/06 07:25:28;;;;;;;7.40;3.15;;;;;;;;;;4998110;28;20670;-62
2022/12/06 07:27:53;;;;;;;6.25;2.88;;;;;;;;;;4968008;28;20431;-62
2022/12/06 07:30:19;;;;;;;6.43;2.90;;;;;;;;;;4997393;28;20088;-62
2022/12/06 07:32:44;;;;;;;9.98;3.58;;;;;;;;;;4999744;28;20033;-64
2022/12/06 07:35:10;;;;;;;8.63;3.85;;;;;;;;;;4996913;28;20040;-62
2022/12/06 07:37:40;;;;;;;6.95;3.38;;;;;;;;;;4999792;28;20044;-62
2022/12/06 07:40:07;;;;;;;7.43;2.90;;;;;;;;;;4999362;28;21841;-62
2022/12/06 07:45:17;;;;;;;7.43;3.00;;;;;;;;;;5000011;28;20445;-63
2022/12/06 07:47:44;;;;;;;5.40;2.85;;;;;;;;;;4983404;28;20588;-62
2022/12/06 07:50:17;;;;;;;6.45;2.70;;;;;;;;;;4999017;28;20049;-64
2022/12/06 07:52:43;;;;;;;6.78;3.03;;;;;;;;;;4995553;28;20964;-62
2022/12/06 07:55:09;;;;;;;7.40;2.70;;;;;;;;;;4979496;28;20053;-62
2022/12/06 07:57:37;;;;;;;5.63;2.78;;;;;;;;;;5000008;28;20150;-63
2022/12/06 08:00:03;;;;;;;4.80;2.60;;;;;;;;;;4965458;28;20633;-63
2022/12/06 08:02:29;;;;;;;6.47;2.70;;;;;;;;;;4979528;28;20183;-63
2022/12/06 08:04:54;;;;;;;7.32;3.03;;;;;;;;;;4983862;28;20727;-63
2022/12/06 08:07:20;;;;;;;7.30;2.60;;;;;;;;;;4998898;28;20114;-63
2022/12/06 08:09:50;;;;;;;8.20;3.05;;;;;;;;;;4978913;28;20134;-63
2022/12/06 08:12:15;;;;;;;7.05;2.97;;;;;;;;;;5000948;28;20198;-63
2022/12/06 08:14:40;;;;;;;6.63;3.17;;;;;;;;;;4999095;28;20446;-63
2022/12/06 08:17:06;;;;;;;5.95;3.22;;;;;;;;;;5000644;28;20052;-63
2022/12/06 08:19:31;;;;;;;6.68;3.08;;;;;;;;;;5000198;28;20121;-63
2022/12/06 08:21:57;;;;;;;7.32;3.08;;;;;;;;;;5000139;28;20507;-63
2022/12/06 08:24:22;;;;;;;4.75;3.13;;;;;;;;;;5001402;28;20583;-63
2022/12/06 08:26:48;;;;;;;6.90;2.75;;;;;;;;;;4981491;28;20944;-63
2022/12/06 08:29:14;;;;;;;5.68;3.28;;;;;;;;;;5000677;28;20101;-63
2022/12/06 08:31:44;;;;;;;8.07;2.80;;;;;;;;;;4999025;28;20433;-63
2022/12/06 08:34:10;;;;;;;7.57;2.88;;;;;;;;;;5000998;28;20045;-62
2022/12/06 08:36:36;;;;;;;6.30;2.97;;;;;;;;;;4999855;28;20105;-62
2022/12/06 08:39:02;;;;;;;5.82;2.88;;;;;;;;;;4994399;28;20380;-62
2022/12/06 08:44:15;;;;;;;8.23;3.38;;;;;;;;;;4994386;28;20485;-61
2022/12/06 08:46:40;;;;;;;11.45;3.33;;;;;;;;;;4995615;28;20739;-64
2022/12/06 08:49:06;;;;;;;8.77;3.45;;;;;;;;;;4998835;28;20079;-64
2022/12/06 08:51:32;;;;;;;12.45;3.17;;;;;;;;;;4996085;28;20302;-64
2022/12/06 08:54:01;;;;;;;9.18;3.10;;;;;;;;;;4998490;28;20048;-62
2022/12/06 08:56:27;;;;;;;8.90;2.97;;;;;;;;;;4997738;28;21076;-62
2022/12/06 08:58:53;;;;;;;10.40;2.92;;;;;;;;;;4999890;28;20115;-62
2022/12/06 09:01:20;;;;;;;9.82;3.50;;;;;;;;;;4996647;28;20820;-62
2022/12/06 09:03:46;;;;;;;8.15;2.40;;;;;;;;;;4996252;28;20589;-62
2022/12/06 09:06:11;;;;;;;13.63;3.30;;;;;;;;;;4958734;28;20039;-62
2022/12/06 09:08:37;;;;;;;11.38;3.00;;;;;;;;;;4966666;28;20077;-62
2022/12/06 09:11:03;;;;;;;16.60;3.53;;;;;;;;;;4999577;28;20036;-62
2022/12/06 09:13:28;;;;;;;16.95;3.05;;;;;;;;;;4994074;28;20154;-62
2022/12/06 09:15:56;;;;;;;20.63;3.55;;;;;;;;;;4999728;28;20045;-62
2022/12/06 09:18:21;;;;;;;21.00;3.17;;;;;;;;;;4996897;28;20029;-63
2022/12/06 09:20:47;;;;;;;16.23;2.13;;;;;;;;;;4998415;28;20033;-63
2022/12/06 09:23:13;;;;;;;14.68;2.30;;;;;;;;;;4996575;28;20099;-62
2022/12/06 09:25:41;;;;;;;7.00;1.45;;;;;;;;;;4981847;28;21059;-62
2022/12/06 09:28:09;;;;;;;4.95;1.27;;;;;;;;;;4986857;28;20025;-63
2022/12/06 09:30:35;;;;;;;6.55;1.65;;;;;;;;;;4999429;28;20037;-62
2022/12/06 09:33:00;;;;;;;5.25;1.42;;;;;;;;;;5001535;28;20623;-63
2022/12/06 09:35:26;;;;;;;6.75;0.98;;;;;;;;;;4999100;28;20083;-62
2022/12/06 09:37:51;;;;;;;7.10;1.00;;;;;;;;;;4983576;28;20576;-63
2022/12/06 09:40:29;;;;;;;9.35;0.98;;;;;;;;;;4998935;28;20067;-63
2022/12/06 09:43:15;;;;;;;10.63;1.20;;;;;;;;;;4996009;28;20151;-63
2022/12/06 09:46:07;;;;;;;10.75;1.30;;;;;;;;;;4995986;28;20033;-63
2022/12/06 09:48:35;;;;;;;7.95;1.05;;;;;;;;;;4993958;28;20045;-63
2022/12/06 09:51:17;;;;;;;11.98;1.23;;;;;;;;;;5000602;28;20584;-63
2022/12/06 09:54:02;;;;;;;7.07;1.13;;;;;;;;;;4998143;28;20045;-63
2022/12/06 09:56:35;;;;;;;2.90;0.70;;;;;;;;;;5000273;28;20144;-63
2022/12/06 09:59:13;;;;;;;3.17;0.73;;;;;;;;;;4984597;28;20040;-63
2022/12/06 10:01:51;;;;;;;5.07;0.60;;;;;;;;;;4996451;28;20029;-62
2022/12/06 10:04:43;;;;;;;3.08;0.80;;;;;;;;;;5000995;28;20037;-62
2022/12/06 10:07:28;;;;;;;3.25;0.90;;;;;;;;;;4963304;28;20041;-62
2022/12/06 10:10:02;;;;;;;5.90;1.02;;;;;;;;;;4995101;28;20076;-62
2022/12/06 10:12:34;;;;;;;4.88;0.90;;;;;;;;;;4998700;28;20486;-62
2022/12/06 10:15:05;;;;;;;5.88;1.73;;;;;;;;;;4997763;28;20115;-65
2022/12/06 10:17:41;;;;;;;6.03;0.98;;;;;;;;;;4996319;28;20367;-65
2022/12/06 10:20:13;;;;;;;6.45;0.90;;;;;;;;;;4980145;28;20036;-62
2022/12/06 10:22:47;;;;;;;8.38;1.00;;;;;;;;;;4975361;28;20908;-62
2022/12/06 10:25:15;;;;;;;6.22;0.80;;;;;;;;;;4997829;28;20047;-63
2022/12/06 10:27:44;;;;;;;10.57;0.90;;;;;;;;;;4999016;28;20045;-62
2022/12/06 10:30:11;;;;;;;5.05;0.82;;;;;;;;;;4999023;28;20967;-63
2022/12/06 10:32:50;;;;;;;4.68;0.73;;;;;;;;;;4998309;28;20562;-63
2022/12/06 10:35:16;;;;;;;6.00;1.00;;;;;;;;;;4997528;28;20090;-63
2022/12/06 10:38:20;;;;;;;4.00;0.80;;;;;;;;;;4981866;28;20618;-63
2022/12/06 10:40:51;;;;;;;5.50;0.82;;;;;;;;;;4913688;28;20027;-63
2022/12/06 10:43:22;;;;;;;4.88;0.90;;;;;;;;;;4911829;28;20919;-62
2022/12/06 10:48:42;;;;;;;3.05;0.63;;;;;;;;;;4977406;28;20084;-62
2022/12/06 10:51:13;;;;;;;5.32;0.80;;;;;;;;;;4998728;28;20167;-63
2022/12/06 10:53:42;;;;;;;7.68;0.80;;;;;;;;;;4976006;28;20109;-63
2022/12/06 10:56:23;;;;;;;5.03;1.05;;;;;;;;;;5000570;28;20490;-63
2022/12/06 10:58:52;;;;;;;8.68;1.10;;;;;;;;;;5001135;28;20565;-63
2022/12/06 11:01:21;;;;;;;3.67;0.73;;;;;;;;;;5000445;28;20037;-63
2022/12/06 11:03:54;;;;;;;11.30;0.93;;;;;;;;;;4999566;28;23128;-63
2022/12/06 11:06:44;;;;;;;10.93;1.20;;;;;;;;;;4981742;28;20114;-63
2022/12/06 11:09:18;;;;;;;12.10;0.93;;;;;;;;;;4991950;28;20049;-63
2022/12/06 11:11:44;;;;;;;5.60;1.00;;;;;;;;;;5001318;28;20029;-63
2022/12/06 11:14:25;;;;;;;2.25;0.80;;;;;;;;;;5001555;28;20649;-63
2022/12/06 11:16:53;;;;;;;5.70;0.70;;;;;;;;;;5002839;28;20056;-63
2022/12/06 11:19:27;;;;;;;4.03;0.77;;;;;;;;;;5001717;28;20030;-63
2022/12/06 11:22:03;;;;;;;6.57;0.68;;;;;;;;;;5002254;28;20198;-63
2022/12/06 11:24:35;;;;;;;4.93;0.85;;;;;;;;;;4997023;28;20033;-63
2022/12/06 11:27:21;;;;;;;3.17;0.65;;;;;;;;;;5000333;28;20075;-63
2022/12/06 11:29:47;;;;;;;7.38;1.00;;;;;;;;;;5001278;28;20787;-63
2022/12/06 11:32:13;;;;;;;12.35;0.85;;;;;;;;;;4981278;28;20113;-63
2022/12/06 11:34:42;;;;;;;5.30;0.90;;;;;;;;;;5002599;28;20122;-63
2022/12/06 11:37:12;;;;;;;4.20;0.95;;;;;;;;;;4999909;28;20041;-64
2022/12/06 11:39:38;;;;;;;4.88;0.80;;;;;;;;;;4999927;28;20592;-63
2022/12/06 11:42:07;;;;;;;7.13;1.00;;;;;;;;;;4997257;28;20072;-63
2022/12/06 11:44:44;;;;;;;4.60;0.80;;;;;;;;;;4997850;28;20142;-65
2022/12/06 11:47:13;;;;;;;6.85;1.00;;;;;;;;;;5000876;28;20041;-65
2022/12/06 11:49:40;;;;;;;11.88;1.10;;;;;;;;;;5001918;28;20041;-65
2022/12/06 11:52:11;;;;;;;5.75;1.02;;;;;;;;;;4981233;28;22544;-65
2022/12/06 11:54:46;;;;;;;6.88;1.05;;;;;;;;;;4998703;28;20143;-65
2022/12/06 11:57:14;;;;;;;5.82;0.80;;;;;;;;;;5001014;28;20174;-63
2022/12/06 11:59:59;;;;;;;6.85;0.80;;;;;;;;;;4995148;28;21882;-62
2022/12/06 12:02:31;;;;;;;6.07;0.80;;;;;;;;;;4998901;28;20033;-64
2022/12/06 12:05:06;;;;;;;7.45;1.00;;;;;;;;;;4983382;28;20029;-64
2022/12/06 12:07:36;;;;;;;6.05;0.98;;;;;;;;;;5001623;28;22290;-64
2022/12/06 12:10:21;;;;;;;7.00;0.90;;;;;;;;;;4999492;28;20040;-64
2022/12/06 12:15:31;;;;;;;7.22;1.23;;;;;;;;;;4996960;28;20119;-63
2022/12/06 12:17:57;;;;;;;4.45;0.75;;;;;;;;;;4991004;28;20045;-63
2022/12/06 12:20:29;;;;;;;6.45;0.95;;;;;;;;;;4999891;28;20197;-63
2022/12/06 12:23:18;;;;;;;9.25;1.08;;;;;;;;;;4997931;28;20045;-62
2022/12/06 12:25:56;;;;;;;8.48;1.15;;;;;;;;;;4982813;28;20289;-63
2022/12/06 12:28:26;;;;;;;11.55;1.33;;;;;;;;;;4997719;28;20076;-66
2022/12/06 12:30:53;;;;;;;9.27;0.93;;;;;;;;;;4977713;28;20600;-66
2022/12/06 12:33:21;;;;;;;3.42;0.63;;;;;;;;;;4978102;28;20052;-65
2022/12/06 12:36:06;;;;;;;5.40;0.85;;;;;;;;;;4991384;28;20626;-67
2022/12/06 12:38:40;;;;;;;9.32;1.48;;;;;;;;;;4977766;28;20402;-66
2022/12/06 12:41:23;;;;;;;10.65;1.30;;;;;;;;;;4998364;28;20401;-66
2022/12/06 12:43:48;;;;;;;;;;;;;;;;;;5000311;28;20575;-65
2022/12/06 12:46:16;;;;;;;7.07;1.00;;;;;;;;;;4996841;28;19955;-65
2022/12/06 12:48:43;;;;;;;10.20;1.00;;;;;;;;;;4976423;28;20045;-66
2022/12/06 12:51:17;;;;;;;9.85;1.50;;;;;;;;;;4997323;28;20475;-66
2022/12/06 12:53:44;;;;;;;11.13;1.25;;;;;;;;;;4998416;28;20650;-67
2022/12/06 12:56:14;;;;;;;15.63;1.65;;;;;;;;;;4999841;28;20735;-67
2022/12/06 12:58:43;;;;;;;7.80;0.90;;;;;;;;;;4995130;28;20102;-67
2022/12/06 13:01:19;;;;;;;11.10;1.23;;;;;;;;;;4998365;28;20516;-67
2022/12/06 13:03:46;;;;;;;11.75;1.20;;;;;;;;;;4997198;28;20751;-67
2022/12/06 13:06:31;;;;;;;17.58;1.60;;;;;;;;;;4996055;28;20130;-67
2022/12/06 13:08:59;;;;;;;13.48;1.50;;;;;;;;;;4977155;28;20037;-67
2022/12/06 13:11:24;;;;;;;14.43;1.73;;;;;;;;;;4960013;28;20083;-67
2022/12/06 13:13:51;;;;;;;13.18;1.50;;;;;;;;;;4997104;28;20033;-67
2022/12/06 13:16:29;;;;;;;11.40;1.25;;;;;;;;;;4993703;28;20156;-66
2022/12/06 13:18:56;;;;;;;27.77;13.07;;;;;;;;;;4997716;28;20443;-67
2022/12/06 13:21:34;;;;;;;22.00;10.60;;;;;;;;;;4997260;28;20509;-66
2022/12/06 13:24:08;;;;;;;7.65;2.30;;;;;;;;;;4994909;28;20059;-67
2022/12/06 13:26:36;;;;;;;7.55;1.40;;;;;;;;;;4975320;28;20126;-67
2022/12/06 13:29:13;;;;;;;10.10;1.90;;;;;;;;;;4995008;28;20548;-68
2022/12/06 13:31:39;;;;;;;4.72;1.10;;;;;;;;;;4997076;28;20044;-68
2022/12/06 13:34:18;;;;;;;5.95;0.80;;;;;;;;;;4978135;28;21106;-67
2022/12/06 13:36:45;;;;;;;12.48;1.63;;;;;;;;;;4993844;28;20216;-68
2022/12/06 13:39:29;;;;;;;6.45;1.00;;;;;;;;;;4991582;28;20410;-67
2022/12/06 13:44:54;;;;;;;6.60;0.82;;;;;;;;;;4999023;28;20865;-68
2022/12/06 13:47:26;;;;;;;6.03;0.70;;;;;;;;;;4998206;28;20044;-67
2022/12/06 13:49:52;;;;;;;6.40;0.90;;;;;;;;;;4994603;28;20091;-67
2022/12/06 13:52:36;;;;;;;5.43;0.82;;;;;;;;;;4995041;28;20424;-66
2022/12/06 13:55:22;;;;;;;5.20;0.98;;;;;;;;;;4997903;28;20568;-68
2022/12/06 13:57:47;;;;;;;4.20;0.88;;;;;;;;;;4995936;28;20361;-67
2022/12/06 14:00:28;;;;;;;5.75;0.80;;;;;;;;;;4997374;28;20421;-67
2022/12/06 14:02:54;;;;;;;6.80;1.02;;;;;;;;;;4975894;28;20040;-67
2022/12/06 14:05:38;;;;;;;8.40;1.25;;;;;;;;;;4996472;28;20420;-67
2022/12/06 14:08:03;;;;;;;10.40;1.10;;;;;;;;;;4996104;28;20493;-67
2022/12/06 14:10:29;;;;;;;9.07;1.33;;;;;;;;;;4983406;28;20068;-67
2022/12/06 14:12:58;;;;;;;12.23;1.27;;;;;;;;;;4995670;28;20048;-67
2022/12/06 14:15:23;;;;;;;5.90;1.02;;;;;;;;;;4996036;28;20056;-67
2022/12/06 14:17:48;;;;;;;7.18;1.05;;;;;;;;;;4976940;28;20033;-67
2022/12/06 14:20:22;;;;;;;6.50;0.80;;;;;;;;;;4995759;28;20778;-67
2022/12/06 14:22:47;;;;;;;8.95;0.90;;;;;;;;;;4974646;28;20077;-67
2022/12/06 14:25:16;;;;;;;7.68;1.10;;;;;;;;;;4998438;28;20483;-66
2022/12/06 14:27:43;;;;;;;7.03;1.33;;;;;;;;;;4989911;28;20613;-67
2022/12/06 14:30:34;;;;;;;6.95;1.10;;;;;;;;;;4995160;28;20553;-67
2022/12/06 14:33:00;;;;;;;16.17;1.50;;;;;;;;;;4995935;28;21854;-67
2022/12/06 14:35:34;;;;;;;8.32;1.23;;;;;;;;;;4997937;28;20559;-66
2022/12/06 14:38:01;;;;;;;11.60;1.20;;;;;;;;;;4959497;28;20294;-66
2022/12/06 14:43:22;;;;;;;10.07;1.10;;;;;;;;;;5000330;28;20101;-67
2022/12/06 14:45:48;;;;;;;11.25;1.35;;;;;;;;;;4998970;28;20536;-66
2022/12/06 14:48:14;;;;;;;12.30;1.00;;;;;;;;;;4980414;28;20495;-67
2022/12/06 14:50:48;;;;;;;11.85;1.65;;;;;;;;;;4944558;28;20388;-66
2022/12/06 14:53:32;;;;;;;11.10;1.15;;;;;;;;;;4998449;28;20033;-66
2022/12/06 14:56:06;;;;;;;9.13;1.35;;;;;;;;;;4994879;28;20450;-67
2022/12/06 14:58:43;;;;;;;13.07;1.30;;;;;;;;;;4977710;28;20036;-66
2022/12/06 15:01:20;;;;;;;12.38;1.25;;;;;;;;;;4966820;28;20060;-67
2022/12/06 15:03:56;;;;;;;13.45;1.85;;;;;;;;;;4995744;28;20513;-67
2022/12/06 15:06:29;;;;;;;11.05;1.00;;;;;;;;;;4994844;28;20033;-67
2022/12/06 15:08:57;;;;;;;10.73;1.25;;;;;;;;;;4998073;28;20107;-66
2022/12/06 15:14:12;;;;;;;10.80;1.38;;;;;;;;;;4986209;28;20064;-66
2022/12/06 15:16:40;;;;;;;10.63;1.48;;;;;;;;;;4998485;28;20033;-67
2022/12/06 15:19:10;;;;;;;10.63;1.20;;;;;;;;;;4996740;28;20029;-67
2022/12/06 15:21:36;;;;;;;9.55;1.50;;;;;;;;;;4998402;28;20182;-67
2022/12/06 15:24:01;;;;;;;12.90;1.60;;;;;;;;;;4977718;28;20329;-66
2022/12/06 15:26:26;;;;;;;13.32;1.10;;;;;;;;;;4959489;28;20155;-66
2022/12/06 15:28:51;;;;;;;3.80;0.85;;;;;;;;;;4997460;28;20085;-67
2022/12/06 15:31:21;;;;;;;12.90;1.13;;;;;;;;;;4996241;28;20143;-66
2022/12/06 15:33:46;;;;;;;12.60;1.73;;;;;;;;;;4971927;28;20107;-67